sensor_id;sensor_type;location;lat;lon;timestamp;P1;durP1;ratioP1;P2;durP2;ratioP2
23080;SDS011;11708;50.570;8.532;2023-05-10T00:00:50;2.85;;;1.60;;
23080;SDS011;11708;50.570;8.532;2023-05-10T00:03:16;3.15;;;1.50;;
23080;SDS011;11708;50.570;8.532;2023-05-10T00:05:41;2.25;;;0.90;;
23080;SDS011;11708;50.570;8.532;2023-05-10T00:08:07;2.80;;;1.10;;
23080;SDS011;11708;50.570;8.532;2023-05-10T00:10:33;1.08;;;0.73;;
23080;SDS011;11708;50.570;8.532;2023-05-10T00:12:58;1.00;;;0.90;;
23080;SDS011;11708;50.570;8.532;2023-05-10T00:15:24;2.65;;;0.90;;
23080;SDS011;11708;50.570;8.532;2023-05-10T00:17:49;0.93;;;0.90;;
23080;SDS011;11708;50.570;8.532;2023-05-10T00:20:15;1.10;;;0.77;;
23080;SDS011;11708;50.570;8.532;2023-05-10T00:22:40;2.25;;;0.70;;
23080;SDS011;11708;50.570;8.532;2023-05-10T00:25:06;1.55;;;0.40;;
23080;SDS011;11708;50.570;8.532;2023-05-10T00:27:32;0.98;;;0.50;;
23080;SDS011;11708;50.570;8.532;2023-05-10T00:29:58;0.75;;;0.32;;
23080;SDS011;11708;50.570;8.532;2023-05-10T00:32:23;0.57;;;0.40;;
23080;SDS011;11708;50.570;8.532;2023-05-10T00:34:49;2.90;;;0.40;;
23080;SDS011;11708;50.570;8.532;2023-05-10T00:37:15;1.65;;;0.13;;
23080;SDS011;11708;50.570;8.532;2023-05-10T00:39:41;0.60;;;0.40;;
23080;SDS011;11708;50.570;8.532;2023-05-10T00:42:06;1.13;;;0.50;;
23080;SDS011;11708;50.570;8.532;2023-05-10T00:44:32;1.92;;;0.70;;
23080;SDS011;11708;50.570;8.532;2023-05-10T00:46:57;2.13;;;0.55;;
23080;SDS011;11708;50.570;8.532;2023-05-10T00:49:24;0.40;;;0.40;;
23080;SDS011;11708;50.570;8.532;2023-05-10T00:51:50;1.80;;;0.50;;
23080;SDS011;11708;50.570;8.532;2023-05-10T00:54:16;0.50;;;0.50;;
23080;SDS011;11708;50.570;8.532;2023-05-10T00:56:41;0.85;;;0.60;;
23080;SDS011;11708;50.570;8.532;2023-05-10T00:59:13;0.40;;;0.40;;
23080;SDS011;11708;50.570;8.532;2023-05-10T01:01:39;3.10;;;0.65;;
23080;SDS011;11708;50.570;8.532;2023-05-10T01:04:05;0.50;;;0.50;;
23080;SDS011;11708;50.570;8.532;2023-05-10T01:06:30;0.38;;;0.38;;
23080;SDS011;11708;50.570;8.532;2023-05-10T01:08:57;0.82;;;0.40;;
23080;SDS011;11708;50.570;8.532;2023-05-10T01:11:22;1.35;;;0.43;;
23080;SDS011;11708;50.570;8.532;2023-05-10T01:13:50;0.93;;;0.60;;
23080;SDS011;11708;50.570;8.532;2023-05-10T01:16:21;0.30;;;0.30;;
23080;SDS011;11708;50.570;8.532;2023-05-10T01:18:46;0.35;;;0.35;;
23080;SDS011;11708;50.570;8.532;2023-05-10T01:21:33;0.32;;;0.32;;
23080;SDS011;11708;50.570;8.532;2023-05-10T01:38:40;0.30;;;0.30;;
23080;SDS011;11708;50.570;8.532;2023-05-10T01:46:24;0.45;;;0.45;;
23080;SDS011;11708;50.570;8.532;2023-05-10T01:48:57;0.50;;;0.50;;
23080;SDS011;11708;50.570;8.532;2023-05-10T01:51:24;0.32;;;0.30;;
23080;SDS011;11708;50.570;8.532;2023-05-10T01:53:56;0.82;;;0.40;;
23080;SDS011;11708;50.570;8.532;2023-05-10T01:56:25;1.92;;;0.50;;
23080;SDS011;11708;50.570;8.532;2023-05-10T01:58:52;0.38;;;0.38;;
23080;SDS011;11708;50.570;8.532;2023-05-10T02:01:20;0.40;;;0.40;;
23080;SDS011;11708;50.570;8.532;2023-05-10T02:03:47;1.13;;;0.50;;
23080;SDS011;11708;50.570;8.532;2023-05-10T02:06:14;0.43;;;0.43;;
23080;SDS011;11708;50.570;8.532;2023-05-10T02:08:43;0.32;;;0.32;;
23080;SDS011;11708;50.570;8.532;2023-05-10T02:11:12;1.35;;;0.50;;
23080;SDS011;11708;50.570;8.532;2023-05-10T02:13:38;0.50;;;0.50;;
23080;SDS011;11708;50.570;8.532;2023-05-10T02:16:05;0.43;;;0.43;;
23080;SDS011;11708;50.570;8.532;2023-05-10T02:18:32;0.75;;;0.47;;
23080;SDS011;11708;50.570;8.532;2023-05-10T02:20:59;0.52;;;0.45;;
23080;SDS011;11708;50.570;8.532;2023-05-10T02:23:27;1.02;;;0.50;;
23080;SDS011;11708;50.570;8.532;2023-05-10T02:25:54;1.08;;;0.50;;
23080;SDS011;11708;50.570;8.532;2023-05-10T02:28:21;0.50;;;0.50;;
23080;SDS011;11708;50.570;8.532;2023-05-10T02:30:49;0.50;;;0.50;;
23080;SDS011;11708;50.570;8.532;2023-05-10T02:33:16;0.60;;;0.57;;
23080;SDS011;11708;50.570;8.532;2023-05-10T02:35:44;2.78;;;0.60;;
23080;SDS011;11708;50.570;8.532;2023-05-10T02:38:11;0.65;;;0.50;;
23080;SDS011;11708;50.570;8.532;2023-05-10T02:40:38;0.70;;;0.70;;
23080;SDS011;11708;50.570;8.532;2023-05-10T02:43:07;4.68;;;0.70;;
23080;SDS011;11708;50.570;8.532;2023-05-10T02:45:37;2.72;;;0.68;;
23080;SDS011;11708;50.570;8.532;2023-05-10T02:48:04;0.90;;;0.90;;
23080;SDS011;11708;50.570;8.532;2023-05-10T02:50:30;3.83;;;0.80;;
23080;SDS011;11708;50.570;8.532;2023-05-10T02:53:02;1.65;;;0.77;;
23080;SDS011;11708;50.570;8.532;2023-05-10T02:55:38;2.05;;;0.70;;
23080;SDS011;11708;50.570;8.532;2023-05-10T02:58:05;1.00;;;0.77;;
23080;SDS011;11708;50.570;8.532;2023-05-10T03:00:31;1.27;;;1.00;;
23080;SDS011;11708;50.570;8.532;2023-05-10T03:02:57;2.10;;;0.90;;
23080;SDS011;11708;50.570;8.532;2023-05-10T03:05:23;2.10;;;1.15;;
23080;SDS011;11708;50.570;8.532;2023-05-10T03:07:48;3.25;;;1.00;;
23080;SDS011;11708;50.570;8.532;2023-05-10T03:10:14;2.08;;;1.10;;
23080;SDS011;11708;50.570;8.532;2023-05-10T03:12:52;1.30;;;1.20;;
23080;SDS011;11708;50.570;8.532;2023-05-10T03:15:31;5.22;;;1.30;;
23080;SDS011;11708;50.570;8.532;2023-05-10T03:18:47;1.67;;;1.20;;
23080;SDS011;11708;50.570;8.532;2023-05-10T03:21:02;2.78;;;1.20;;
23080;SDS011;11708;50.570;8.532;2023-05-10T03:26:12;1.63;;;1.40;;
23080;SDS011;11708;50.570;8.532;2023-05-10T03:28:50;2.53;;;0.98;;
23080;SDS011;11708;50.570;8.532;2023-05-10T03:31:17;1.48;;;1.30;;
23080;SDS011;11708;50.570;8.532;2023-05-10T03:33:49;3.70;;;1.17;;
23080;SDS011;11708;50.570;8.532;2023-05-10T03:36:16;1.67;;;1.30;;
23080;SDS011;11708;50.570;8.532;2023-05-10T03:38:42;1.45;;;1.20;;
23080;SDS011;11708;50.570;8.532;2023-05-10T03:41:08;1.30;;;1.20;;
23080;SDS011;11708;50.570;8.532;2023-05-10T03:43:34;1.30;;;1.20;;
23080;SDS011;11708;50.570;8.532;2023-05-10T03:46:01;1.10;;;1.00;;
23080;SDS011;11708;50.570;8.532;2023-05-10T03:48:30;1.60;;;1.30;;
23080;SDS011;11708;50.570;8.532;2023-05-10T03:50:57;1.80;;;1.30;;
23080;SDS011;11708;50.570;8.532;2023-05-10T03:53:22;4.55;;;1.58;;
23080;SDS011;11708;50.570;8.532;2023-05-10T03:55:48;1.30;;;1.15;;
23080;SDS011;11708;50.570;8.532;2023-05-10T03:58:14;3.92;;;1.50;;
23080;SDS011;11708;50.570;8.532;2023-05-10T04:00:40;1.38;;;1.27;;
23080;SDS011;11708;50.570;8.532;2023-05-10T04:03:10;2.47;;;1.70;;
23080;SDS011;11708;50.570;8.532;2023-05-10T04:05:36;3.28;;;1.70;;
23080;SDS011;11708;50.570;8.532;2023-05-10T04:08:02;2.45;;;2.00;;
23080;SDS011;11708;50.570;8.532;2023-05-10T04:10:28;3.17;;;2.13;;
23080;SDS011;11708;50.570;8.532;2023-05-10T04:12:53;4.30;;;1.88;;
23080;SDS011;11708;50.570;8.532;2023-05-10T04:15:19;2.08;;;1.83;;
23080;SDS011;11708;50.570;8.532;2023-05-10T04:17:45;3.45;;;2.03;;
23080;SDS011;11708;50.570;8.532;2023-05-10T04:20:11;2.42;;;1.90;;
23080;SDS011;11708;50.570;8.532;2023-05-10T04:22:37;3.38;;;1.90;;
23080;SDS011;11708;50.570;8.532;2023-05-10T04:25:03;2.30;;;1.85;;
23080;SDS011;11708;50.570;8.532;2023-05-10T04:27:29;2.95;;;2.00;;
23080;SDS011;11708;50.570;8.532;2023-05-10T04:29:55;4.63;;;2.33;;
23080;SDS011;11708;50.570;8.532;2023-05-10T04:32:21;2.65;;;2.20;;
23080;SDS011;11708;50.570;8.532;2023-05-10T04:34:47;4.95;;;1.98;;
23080;SDS011;11708;50.570;8.532;2023-05-10T04:37:13;3.10;;;2.20;;
23080;SDS011;11708;50.570;8.532;2023-05-10T04:39:38;3.55;;;2.60;;
23080;SDS011;11708;50.570;8.532;2023-05-10T04:42:04;2.75;;;2.08;;
23080;SDS011;11708;50.570;8.532;2023-05-10T04:44:30;4.15;;;2.38;;
23080;SDS011;11708;50.570;8.532;2023-05-10T04:46:59;2.65;;;2.17;;
23080;SDS011;11708;50.570;8.532;2023-05-10T04:49:25;3.80;;;2.60;;
23080;SDS011;11708;50.570;8.532;2023-05-10T04:51:50;3.15;;;2.53;;
23080;SDS011;11708;50.570;8.532;2023-05-10T04:54:16;2.65;;;2.10;;
23080;SDS011;11708;50.570;8.532;2023-05-10T04:56:41;2.53;;;2.20;;
23080;SDS011;11708;50.570;8.532;2023-05-10T04:59:07;3.05;;;2.33;;
23080;SDS011;11708;50.570;8.532;2023-05-10T05:01:32;3.20;;;2.38;;
23080;SDS011;11708;50.570;8.532;2023-05-10T05:03:58;2.60;;;2.40;;
23080;SDS011;11708;50.570;8.532;2023-05-10T05:06:24;4.40;;;2.13;;
23080;SDS011;11708;50.570;8.532;2023-05-10T05:08:50;2.78;;;2.10;;
23080;SDS011;11708;50.570;8.532;2023-05-10T05:11:16;4.07;;;1.70;;
23080;SDS011;11708;50.570;8.532;2023-05-10T05:13:42;2.10;;;1.90;;
23080;SDS011;11708;50.570;8.532;2023-05-10T05:16:08;2.88;;;2.00;;
23080;SDS011;11708;50.570;8.532;2023-05-10T05:18:33;2.85;;;1.92;;
23080;SDS011;11708;50.570;8.532;2023-05-10T05:21:00;2.63;;;1.67;;
23080;SDS011;11708;50.570;8.532;2023-05-10T05:23:26;1.92;;;1.60;;
23080;SDS011;11708;50.570;8.532;2023-05-10T05:25:52;1.52;;;1.42;;
23080;SDS011;11708;50.570;8.532;2023-05-10T05:28:18;1.65;;;1.55;;
23080;SDS011;11708;50.570;8.532;2023-05-10T05:30:45;1.95;;;1.60;;
23080;SDS011;11708;50.570;8.532;2023-05-10T05:33:11;2.30;;;1.70;;
23080;SDS011;11708;50.570;8.532;2023-05-10T05:35:37;1.77;;;1.48;;
23080;SDS011;11708;50.570;8.532;2023-05-10T05:38:03;2.58;;;1.65;;
23080;SDS011;11708;50.570;8.532;2023-05-10T05:40:29;2.83;;;1.55;;
23080;SDS011;11708;50.570;8.532;2023-05-10T05:42:54;3.13;;;1.58;;
23080;SDS011;11708;50.570;8.532;2023-05-10T05:45:20;1.52;;;1.42;;
23080;SDS011;11708;50.570;8.532;2023-05-10T05:47:46;2.17;;;1.38;;
23080;SDS011;11708;50.570;8.532;2023-05-10T05:50:12;1.70;;;1.35;;
23080;SDS011;11708;50.570;8.532;2023-05-10T05:52:37;1.50;;;1.40;;
23080;SDS011;11708;50.570;8.532;2023-05-10T05:55:03;2.92;;;1.30;;
23080;SDS011;11708;50.570;8.532;2023-05-10T05:57:29;2.38;;;1.33;;
23080;SDS011;11708;50.570;8.532;2023-05-10T05:59:54;2.45;;;1.30;;
23080;SDS011;11708;50.570;8.532;2023-05-10T06:02:20;1.73;;;1.58;;
23080;SDS011;11708;50.570;8.532;2023-05-10T06:04:45;1.35;;;1.25;;
23080;SDS011;11708;50.570;8.532;2023-05-10T06:07:11;2.08;;;1.40;;
23080;SDS011;11708;50.570;8.532;2023-05-10T06:09:37;4.68;;;1.42;;
23080;SDS011;11708;50.570;8.532;2023-05-10T06:12:02;3.58;;;1.20;;
23080;SDS011;11708;50.570;8.532;2023-05-10T06:14:28;1.20;;;1.10;;
23080;SDS011;11708;50.570;8.532;2023-05-10T06:16:53;1.30;;;1.20;;
23080;SDS011;11708;50.570;8.532;2023-05-10T06:19:19;0.85;;;0.82;;
23080;SDS011;11708;50.570;8.532;2023-05-10T06:21:44;1.58;;;1.20;;
23080;SDS011;11708;50.570;8.532;2023-05-10T06:24:10;1.35;;;1.20;;
23080;SDS011;11708;50.570;8.532;2023-05-10T06:26:35;3.08;;;1.25;;
23080;SDS011;11708;50.570;8.532;2023-05-10T06:29:01;2.15;;;1.30;;
23080;SDS011;11708;50.570;8.532;2023-05-10T06:31:27;2.97;;;1.33;;
23080;SDS011;11708;50.570;8.532;2023-05-10T06:33:52;1.67;;;1.50;;
23080;SDS011;11708;50.570;8.532;2023-05-10T06:36:18;2.17;;;1.25;;
23080;SDS011;11708;50.570;8.532;2023-05-10T06:38:44;2.78;;;1.67;;
23080;SDS011;11708;50.570;8.532;2023-05-10T06:41:09;1.67;;;1.33;;
23080;SDS011;11708;50.570;8.532;2023-05-10T06:43:35;2.42;;;1.50;;
23080;SDS011;11708;50.570;8.532;2023-05-10T06:46:01;2.75;;;1.60;;
23080;SDS011;11708;50.570;8.532;2023-05-10T06:48:27;3.15;;;1.70;;
23080;SDS011;11708;50.570;8.532;2023-05-10T06:50:53;2.13;;;1.52;;
23080;SDS011;11708;50.570;8.532;2023-05-10T06:53:18;3.58;;;2.13;;
23080;SDS011;11708;50.570;8.532;2023-05-10T06:55:44;9.50;;;2.65;;
23080;SDS011;11708;50.570;8.532;2023-05-10T06:58:10;3.65;;;1.88;;
23080;SDS011;11708;50.570;8.532;2023-05-10T07:00:36;3.72;;;2.22;;
23080;SDS011;11708;50.570;8.532;2023-05-10T07:03:05;7.15;;;2.13;;
23080;SDS011;11708;50.570;8.532;2023-05-10T07:05:31;4.03;;;2.55;;
23080;SDS011;11708;50.570;8.532;2023-05-10T07:07:56;3.75;;;1.92;;
23080;SDS011;11708;50.570;8.532;2023-05-10T07:10:22;2.20;;;1.77;;
23080;SDS011;11708;50.570;8.532;2023-05-10T07:12:47;4.43;;;1.83;;
23080;SDS011;11708;50.570;8.532;2023-05-10T07:15:13;3.78;;;2.10;;
23080;SDS011;11708;50.570;8.532;2023-05-10T07:17:38;5.15;;;1.95;;
23080;SDS011;11708;50.570;8.532;2023-05-10T07:20:04;3.92;;;2.13;;
23080;SDS011;11708;50.570;8.532;2023-05-10T07:22:30;3.35;;;2.05;;
23080;SDS011;11708;50.570;8.532;2023-05-10T07:24:56;6.18;;;2.53;;
23080;SDS011;11708;50.570;8.532;2023-05-10T07:27:21;2.75;;;1.70;;
23080;SDS011;11708;50.570;8.532;2023-05-10T07:29:47;2.15;;;1.75;;
23080;SDS011;11708;50.570;8.532;2023-05-10T07:32:13;5.90;;;2.10;;
23080;SDS011;11708;50.570;8.532;2023-05-10T07:34:39;3.60;;;2.17;;
23080;SDS011;11708;50.570;8.532;2023-05-10T07:37:04;3.67;;;1.88;;
23080;SDS011;11708;50.570;8.532;2023-05-10T07:39:31;8.27;;;2.70;;
23080;SDS011;11708;50.570;8.532;2023-05-10T07:41:56;3.67;;;2.08;;
23080;SDS011;11708;50.570;8.532;2023-05-10T07:44:22;3.05;;;1.55;;
23080;SDS011;11708;50.570;8.532;2023-05-10T07:46:47;2.45;;;1.52;;
23080;SDS011;11708;50.570;8.532;2023-05-10T07:49:13;2.65;;;1.83;;
23080;SDS011;11708;50.570;8.532;2023-05-10T07:51:39;2.08;;;1.40;;
23080;SDS011;11708;50.570;8.532;2023-05-10T07:54:06;2.08;;;1.70;;
23080;SDS011;11708;50.570;8.532;2023-05-10T07:56:31;3.25;;;1.48;;
23080;SDS011;11708;50.570;8.532;2023-05-10T07:59:01;2.83;;;1.48;;
23080;SDS011;11708;50.570;8.532;2023-05-10T08:01:32;1.98;;;1.50;;
23080;SDS011;11708;50.570;8.532;2023-05-10T08:03:59;1.85;;;1.50;;
23080;SDS011;11708;50.570;8.532;2023-05-10T08:06:25;1.48;;;1.23;;
23080;SDS011;11708;50.570;8.532;2023-05-10T08:08:52;3.40;;;1.55;;
23080;SDS011;11708;50.570;8.532;2023-05-10T08:11:19;3.53;;;1.65;;
23080;SDS011;11708;50.570;8.532;2023-05-10T08:13:45;2.97;;;1.50;;
23080;SDS011;11708;50.570;8.532;2023-05-10T08:16:11;4.90;;;1.83;;
23080;SDS011;11708;50.570;8.532;2023-05-10T08:18:37;3.38;;;2.15;;
23080;SDS011;11708;50.570;8.532;2023-05-10T08:21:03;4.40;;;2.30;;
23080;SDS011;11708;50.570;8.532;2023-05-10T08:23:29;6.20;;;2.65;;
23080;SDS011;11708;50.570;8.532;2023-05-10T08:25:55;7.15;;;2.33;;
23080;SDS011;11708;50.570;8.532;2023-05-10T08:28:20;3.33;;;2.30;;
23080;SDS011;11708;50.570;8.532;2023-05-10T08:30:46;4.28;;;2.63;;
23080;SDS011;11708;50.570;8.532;2023-05-10T08:33:11;4.75;;;2.60;;
23080;SDS011;11708;50.570;8.532;2023-05-10T08:35:37;6.30;;;2.92;;
23080;SDS011;11708;50.570;8.532;2023-05-10T08:38:02;4.20;;;2.90;;
23080;SDS011;11708;50.570;8.532;2023-05-10T08:40:28;8.02;;;3.65;;
23080;SDS011;11708;50.570;8.532;2023-05-10T08:42:55;5.82;;;3.00;;
23080;SDS011;11708;50.570;8.532;2023-05-10T08:45:25;6.72;;;3.33;;
23080;SDS011;11708;50.570;8.532;2023-05-10T08:47:53;4.43;;;3.00;;
23080;SDS011;11708;50.570;8.532;2023-05-10T08:50:19;3.38;;;2.47;;
23080;SDS011;11708;50.570;8.532;2023-05-10T08:52:46;4.28;;;2.90;;
23080;SDS011;11708;50.570;8.532;2023-05-10T08:55:15;3.17;;;2.88;;
23080;SDS011;11708;50.570;8.532;2023-05-10T08:57:41;4.10;;;2.95;;
23080;SDS011;11708;50.570;8.532;2023-05-10T09:00:07;4.40;;;2.92;;
23080;SDS011;11708;50.570;8.532;2023-05-10T09:02:34;5.28;;;3.20;;
23080;SDS011;11708;50.570;8.532;2023-05-10T09:05:01;3.30;;;2.47;;
23080;SDS011;11708;50.570;8.532;2023-05-10T09:07:29;3.20;;;2.50;;
23080;SDS011;11708;50.570;8.532;2023-05-10T09:09:55;5.13;;;2.20;;
23080;SDS011;11708;50.570;8.532;2023-05-10T09:12:21;2.65;;;1.92;;
23080;SDS011;11708;50.570;8.532;2023-05-10T09:14:47;1.65;;;1.40;;
23080;SDS011;11708;50.570;8.532;2023-05-10T09:17:15;2.25;;;1.38;;
23080;SDS011;11708;50.570;8.532;2023-05-10T09:19:41;1.58;;;1.23;;
23080;SDS011;11708;50.570;8.532;2023-05-10T09:22:06;1.35;;;1.23;;
23080;SDS011;11708;50.570;8.532;2023-05-10T09:24:32;2.88;;;1.20;;
23080;SDS011;11708;50.570;8.532;2023-05-10T09:26:57;1.95;;;1.40;;
23080;SDS011;11708;50.570;8.532;2023-05-10T09:29:23;1.30;;;1.00;;
23080;SDS011;11708;50.570;8.532;2023-05-10T09:31:52;1.63;;;1.40;;
23080;SDS011;11708;50.570;8.532;2023-05-10T09:34:28;2.13;;;1.33;;
23080;SDS011;11708;50.570;8.532;2023-05-10T09:36:58;2.58;;;1.58;;
23080;SDS011;11708;50.570;8.532;2023-05-10T09:39:35;2.25;;;1.60;;
23080;SDS011;11708;50.570;8.532;2023-05-10T09:42:03;2.13;;;1.33;;
23080;SDS011;11708;50.570;8.532;2023-05-10T09:44:30;2.55;;;1.80;;
23080;SDS011;11708;50.570;8.532;2023-05-10T09:46:57;1.67;;;1.20;;
23080;SDS011;11708;50.570;8.532;2023-05-10T09:49:24;1.92;;;1.58;;
23080;SDS011;11708;50.570;8.532;2023-05-10T09:51:59;2.40;;;1.70;;
23080;SDS011;11708;50.570;8.532;2023-05-10T09:54:26;2.50;;;2.00;;
23080;SDS011;11708;50.570;8.532;2023-05-10T09:56:52;2.92;;;2.13;;
23080;SDS011;11708;50.570;8.532;2023-05-10T09:59:17;2.80;;;1.85;;
23080;SDS011;11708;50.570;8.532;2023-05-10T10:01:48;2.58;;;2.00;;
23080;SDS011;11708;50.570;8.532;2023-05-10T10:04:25;3.38;;;2.70;;
23080;SDS011;11708;50.570;8.532;2023-05-10T10:07:00;3.97;;;2.63;;
23080;SDS011;11708;50.570;8.532;2023-05-10T10:09:27;3.42;;;2.60;;
23080;SDS011;11708;50.570;8.532;2023-05-10T10:11:54;3.05;;;2.47;;
23080;SDS011;11708;50.570;8.532;2023-05-10T10:14:20;3.03;;;2.50;;
23080;SDS011;11708;50.570;8.532;2023-05-10T10:16:48;3.55;;;2.70;;
23080;SDS011;11708;50.570;8.532;2023-05-10T10:19:15;3.40;;;2.85;;
23080;SDS011;11708;50.570;8.532;2023-05-10T10:21:40;4.07;;;2.65;;
23080;SDS011;11708;50.570;8.532;2023-05-10T10:24:06;3.67;;;2.65;;
23080;SDS011;11708;50.570;8.532;2023-05-10T10:26:35;3.75;;;2.75;;
23080;SDS011;11708;50.570;8.532;2023-05-10T10:34:17;4.13;;;2.30;;
23080;SDS011;11708;50.570;8.532;2023-05-10T10:36:51;3.30;;;2.60;;
23080;SDS011;11708;50.570;8.532;2023-05-10T10:39:16;4.03;;;2.90;;
23080;SDS011;11708;50.570;8.532;2023-05-10T10:41:55;4.60;;;3.30;;
23080;SDS011;11708;50.570;8.532;2023-05-10T10:44:25;4.95;;;3.15;;
23080;SDS011;11708;50.570;8.532;2023-05-10T10:57:46;4.45;;;3.15;;
23080;SDS011;11708;50.570;8.532;2023-05-10T11:00:19;4.00;;;3.03;;
23080;SDS011;11708;50.570;8.532;2023-05-10T11:02:46;5.30;;;3.50;;
23080;SDS011;11708;50.570;8.532;2023-05-10T11:07:55;5.75;;;3.47;;
23080;SDS011;11708;50.570;8.532;2023-05-10T11:10:22;3.83;;;3.08;;
23080;SDS011;11708;50.570;8.532;2023-05-10T11:12:59;3.65;;;2.70;;
23080;SDS011;11708;50.570;8.532;2023-05-10T11:17:56;4.25;;;3.22;;
23080;SDS011;11708;50.570;8.532;2023-05-10T11:20:21;4.38;;;2.85;;
23080;SDS011;11708;50.570;8.532;2023-05-10T11:22:50;5.20;;;2.80;;
23080;SDS011;11708;50.570;8.532;2023-05-10T11:25:19;4.32;;;2.78;;
23080;SDS011;11708;50.570;8.532;2023-05-10T11:27:51;5.65;;;2.55;;
23080;SDS011;11708;50.570;8.532;2023-05-10T11:30:17;3.40;;;2.63;;
23080;SDS011;11708;50.570;8.532;2023-05-10T11:32:43;5.18;;;2.65;;
23080;SDS011;11708;50.570;8.532;2023-05-10T11:35:12;4.95;;;2.47;;
23080;SDS011;11708;50.570;8.532;2023-05-10T11:37:40;5.40;;;2.83;;
23080;SDS011;11708;50.570;8.532;2023-05-10T11:40:08;3.95;;;2.92;;
23080;SDS011;11708;50.570;8.532;2023-05-10T11:42:37;5.10;;;2.80;;
23080;SDS011;11708;50.570;8.532;2023-05-10T11:45:03;7.15;;;2.90;;
23080;SDS011;11708;50.570;8.532;2023-05-10T11:47:30;4.40;;;2.70;;
23080;SDS011;11708;50.570;8.532;2023-05-10T11:49:55;4.55;;;2.50;;
23080;SDS011;11708;50.570;8.532;2023-05-10T11:52:23;3.28;;;2.20;;
23080;SDS011;11708;50.570;8.532;2023-05-10T11:54:52;3.95;;;2.10;;
23080;SDS011;11708;50.570;8.532;2023-05-10T11:57:19;5.60;;;2.75;;
23080;SDS011;11708;50.570;8.532;2023-05-10T11:59:46;3.88;;;2.55;;
23080;SDS011;11708;50.570;8.532;2023-05-10T12:02:15;5.35;;;2.88;;
23080;SDS011;11708;50.570;8.532;2023-05-10T12:04:41;5.47;;;2.60;;
23080;SDS011;11708;50.570;8.532;2023-05-10T12:07:06;5.88;;;2.22;;
23080;SDS011;11708;50.570;8.532;2023-05-10T12:09:32;2.85;;;2.15;;
23080;SDS011;11708;50.570;8.532;2023-05-10T12:11:57;4.35;;;2.30;;
23080;SDS011;11708;50.570;8.532;2023-05-10T12:14:23;4.38;;;2.30;;
23080;SDS011;11708;50.570;8.532;2023-05-10T12:16:49;2.33;;;1.95;;
23080;SDS011;11708;50.570;8.532;2023-05-10T12:19:18;3.05;;;2.25;;
23080;SDS011;11708;50.570;8.532;2023-05-10T12:21:45;3.35;;;2.42;;
23080;SDS011;11708;50.570;8.532;2023-05-10T12:24:10;3.53;;;2.33;;
23080;SDS011;11708;50.570;8.532;2023-05-10T12:26:37;4.53;;;2.15;;
23080;SDS011;11708;50.570;8.532;2023-05-10T12:29:15;3.92;;;1.88;;
23080;SDS011;11708;50.570;8.532;2023-05-10T12:32:03;3.40;;;2.08;;
23080;SDS011;11708;50.570;8.532;2023-05-10T12:34:35;6.22;;;2.30;;
23080;SDS011;11708;50.570;8.532;2023-05-10T12:37:01;3.40;;;2.60;;
23080;SDS011;11708;50.570;8.532;2023-05-10T12:39:38;3.88;;;1.75;;
23080;SDS011;11708;50.570;8.532;2023-05-10T12:42:08;4.05;;;2.03;;
23080;SDS011;11708;50.570;8.532;2023-05-10T12:44:34;2.17;;;1.65;;
23080;SDS011;11708;50.570;8.532;2023-05-10T12:47:00;4.35;;;1.58;;
23080;SDS011;11708;50.570;8.532;2023-05-10T12:49:25;3.00;;;1.48;;
23080;SDS011;11708;50.570;8.532;2023-05-10T12:51:51;2.95;;;1.33;;
23080;SDS011;11708;50.570;8.532;2023-05-10T12:54:16;2.30;;;1.20;;
23080;SDS011;11708;50.570;8.532;2023-05-10T12:56:42;2.22;;;1.17;;
23080;SDS011;11708;50.570;8.532;2023-05-10T12:59:08;3.63;;;1.10;;
23080;SDS011;11708;50.570;8.532;2023-05-10T13:01:33;5.75;;;1.90;;
23080;SDS011;11708;50.570;8.532;2023-05-10T13:03:59;1.20;;;1.00;;
23080;SDS011;11708;50.570;8.532;2023-05-10T13:06:25;1.30;;;0.90;;
23080;SDS011;11708;50.570;8.532;2023-05-10T13:08:50;3.03;;;0.80;;
23080;SDS011;11708;50.570;8.532;2023-05-10T13:11:16;3.13;;;0.60;;
23080;SDS011;11708;50.570;8.532;2023-05-10T13:13:44;2.53;;;0.60;;
23080;SDS011;11708;50.570;8.532;2023-05-10T13:16:10;0.65;;;0.65;;
23080;SDS011;11708;50.570;8.532;2023-05-10T13:18:35;1.17;;;0.57;;
23080;SDS011;11708;50.570;8.532;2023-05-10T13:21:01;2.03;;;0.50;;
23080;SDS011;11708;50.570;8.532;2023-05-10T13:23:28;0.68;;;0.68;;
23080;SDS011;11708;50.570;8.532;2023-05-10T13:25:54;0.60;;;0.60;;
23080;SDS011;11708;50.570;8.532;2023-05-10T13:28:20;0.70;;;0.70;;
23080;SDS011;11708;50.570;8.532;2023-05-10T13:30:45;3.08;;;0.75;;
23080;SDS011;11708;50.570;8.532;2023-05-10T13:33:11;1.38;;;0.85;;
23080;SDS011;11708;50.570;8.532;2023-05-10T13:35:36;0.88;;;0.70;;
23080;SDS011;11708;50.570;8.532;2023-05-10T13:38:02;2.85;;;0.88;;
23080;SDS011;11708;50.570;8.532;2023-05-10T13:40:27;1.27;;;0.70;;
23080;SDS011;11708;50.570;8.532;2023-05-10T13:42:53;1.73;;;0.73;;
23080;SDS011;11708;50.570;8.532;2023-05-10T13:45:18;2.65;;;0.80;;
23080;SDS011;11708;50.570;8.532;2023-05-10T13:47:44;1.08;;;0.70;;
23080;SDS011;11708;50.570;8.532;2023-05-10T13:50:10;1.77;;;0.90;;
23080;SDS011;11708;50.570;8.532;2023-05-10T13:52:35;2.15;;;1.05;;
23080;SDS011;11708;50.570;8.532;2023-05-10T13:55:01;1.52;;;1.00;;
23080;SDS011;11708;50.570;8.532;2023-05-10T13:57:26;3.38;;;1.00;;
23080;SDS011;11708;50.570;8.532;2023-05-10T13:59:53;2.03;;;0.60;;
23080;SDS011;11708;50.570;8.532;2023-05-10T14:02:19;1.33;;;0.70;;
23080;SDS011;11708;50.570;8.532;2023-05-10T14:04:44;2.97;;;0.70;;
23080;SDS011;11708;50.570;8.532;2023-05-10T14:07:10;2.58;;;0.70;;
23080;SDS011;11708;50.570;8.532;2023-05-10T14:09:36;2.25;;;0.98;;
23080;SDS011;11708;50.570;8.532;2023-05-10T14:12:01;3.05;;;0.75;;
23080;SDS011;11708;50.570;8.532;2023-05-10T14:14:27;2.72;;;0.90;;
23080;SDS011;11708;50.570;8.532;2023-05-10T14:16:54;0.50;;;0.50;;
23080;SDS011;11708;50.570;8.532;2023-05-10T14:19:19;2.83;;;0.60;;
23080;SDS011;11708;50.570;8.532;2023-05-10T14:21:45;3.60;;;0.70;;
23080;SDS011;11708;50.570;8.532;2023-05-10T14:24:10;3.97;;;0.70;;
23080;SDS011;11708;50.570;8.532;2023-05-10T14:26:36;1.88;;;0.63;;
23080;SDS011;11708;50.570;8.532;2023-05-10T14:29:02;0.93;;;0.60;;
23080;SDS011;11708;50.570;8.532;2023-05-10T14:31:27;0.77;;;0.73;;
23080;SDS011;11708;50.570;8.532;2023-05-10T14:33:55;1.48;;;0.95;;
23080;SDS011;11708;50.570;8.532;2023-05-10T14:36:20;0.65;;;0.65;;
23080;SDS011;11708;50.570;8.532;2023-05-10T14:38:46;1.33;;;0.80;;
23080;SDS011;11708;50.570;8.532;2023-05-10T14:41:12;1.05;;;0.80;;
23080;SDS011;11708;50.570;8.532;2023-05-10T14:43:40;0.98;;;0.52;;
23080;SDS011;11708;50.570;8.532;2023-05-10T14:46:06;1.27;;;0.77;;
23080;SDS011;11708;50.570;8.532;2023-05-10T14:48:31;1.98;;;0.60;;
23080;SDS011;11708;50.570;8.532;2023-05-10T14:50:57;1.17;;;0.73;;
23080;SDS011;11708;50.570;8.532;2023-05-10T14:53:23;1.05;;;0.70;;
23080;SDS011;11708;50.570;8.532;2023-05-10T14:55:48;3.28;;;0.70;;
23080;SDS011;11708;50.570;8.532;2023-05-10T14:58:14;0.95;;;0.60;;
23080;SDS011;11708;50.570;8.532;2023-05-10T15:00:40;1.50;;;0.80;;
23080;SDS011;11708;50.570;8.532;2023-05-10T15:03:05;2.90;;;0.75;;
23080;SDS011;11708;50.570;8.532;2023-05-10T15:05:31;1.05;;;0.60;;
23080;SDS011;11708;50.570;8.532;2023-05-10T15:07:56;1.23;;;0.80;;
23080;SDS011;11708;50.570;8.532;2023-05-10T15:10:22;1.45;;;0.90;;
23080;SDS011;11708;50.570;8.532;2023-05-10T15:12:47;0.88;;;0.73;;
23080;SDS011;11708;50.570;8.532;2023-05-10T15:15:13;4.22;;;0.73;;
23080;SDS011;11708;50.570;8.532;2023-05-10T15:17:38;6.95;;;2.65;;
23080;SDS011;11708;50.570;8.532;2023-05-10T15:20:04;1.25;;;0.60;;
23080;SDS011;11708;50.570;8.532;2023-05-10T15:22:30;1.23;;;0.82;;
23080;SDS011;11708;50.570;8.532;2023-05-10T15:24:57;1.42;;;0.80;;
23080;SDS011;11708;50.570;8.532;2023-05-10T15:27:23;1.38;;;0.80;;
23080;SDS011;11708;50.570;8.532;2023-05-10T15:29:49;0.70;;;0.70;;